createdAt,value
2018-03-15T00:01:59.801Z,22.73
2018-03-15T00:04:32.774Z,23.47
2018-03-15T00:07:04.623Z,24.00
2018-03-15T00:09:36.043Z,42.97
2018-03-15T00:12:08.221Z,24.03
2018-03-15T00:14:41.214Z,19.63
2018-03-15T00:17:13.668Z,21.77
2018-03-15T00:19:46.074Z,22.70
2018-03-15T00:22:18.404Z,20.77
2018-03-15T00:24:50.424Z,23.93
2018-03-15T00:27:22.482Z,23.13
2018-03-15T00:29:55.547Z,24.50
2018-03-15T00:32:26.086Z,23.53
2018-03-15T00:34:59.389Z,24.30
2018-03-15T00:37:30.557Z,24.80
2018-03-15T00:40:01.150Z,21.77
2018-03-15T00:42:32.155Z,22.23
2018-03-15T00:45:05.031Z,21.30
2018-03-15T00:47:35.964Z,23.67
2018-03-15T00:50:06.563Z,20.10
2018-03-15T00:52:37.081Z,22.63
2018-03-15T00:55:08.047Z,24.10
2018-03-15T00:57:42.416Z,22.07
2018-03-15T01:00:19.628Z,21.57
2018-03-15T01:02:52.209Z,22.80
2018-03-15T01:05:23.714Z,21.07
2018-03-15T01:07:55.055Z,22.20
2018-03-15T01:10:26.190Z,20.27
2018-03-15T01:12:57.614Z,21.80
2018-03-15T01:15:29.782Z,18.87
2018-03-15T01:18:10.054Z,18.60
2018-03-15T01:20:44.739Z,19.33
2018-03-15T01:23:15.524Z,18.10
2018-03-15T01:25:46.173Z,18.37
2018-03-15T01:28:16.857Z,17.37
2018-03-15T01:30:48.186Z,20.47
2018-03-15T01:33:22.855Z,24.60
2018-03-15T01:35:54.110Z,19.67
2018-03-15T01:38:24.702Z,19.03
2018-03-15T01:40:56.492Z,17.30
2018-03-15T01:43:27.327Z,19.23
2018-03-15T01:45:58.973Z,20.10
2018-03-15T01:48:29.746Z,19.73
2018-03-15T01:50:59.747Z,18.07
2018-03-15T01:53:29.560Z,19.97
2018-03-15T01:55:59.791Z,18.80
2018-03-15T01:58:32.729Z,20.43
2018-03-15T02:01:02.789Z,29.13
2018-03-15T02:03:33.454Z,18.97
2018-03-15T02:06:03.035Z,19.90
2018-03-15T02:08:32.802Z,26.10
2018-03-15T02:11:03.412Z,21.67
2018-03-15T02:13:33.194Z,20.60
2018-03-15T02:16:03.243Z,21.37
2018-03-15T02:18:33.762Z,20.37
2018-03-15T02:21:03.642Z,19.03
2018-03-15T02:23:33.232Z,21.40
2018-03-15T02:26:03.523Z,18.97
2018-03-15T02:28:33.058Z,18.27
2018-03-15T02:31:03.762Z,21.10
2018-03-15T02:33:33.459Z,18.53
2018-03-15T02:36:03.113Z,19.33
2018-03-15T02:38:32.577Z,19.17
2018-03-15T02:41:02.392Z,19.17
2018-03-15T02:43:31.918Z,18.17
2018-03-15T02:46:01.673Z,16.90
2018-03-15T02:48:31.328Z,18.77
2018-03-15T02:51:00.932Z,15.30
2018-03-15T02:53:30.286Z,16.20
2018-03-15T02:55:59.770Z,17.80
2018-03-15T02:58:29.433Z,19.25
2018-03-15T03:00:58.987Z,17.90
2018-03-15T03:03:28.419Z,15.93
2018-03-15T03:05:57.928Z,17.62
2018-03-15T03:08:27.379Z,17.57
2018-03-15T03:10:57.048Z,19.83
2018-03-15T03:13:26.636Z,16.53
2018-03-15T03:15:56.261Z,17.23
2018-03-15T03:18:26.269Z,17.00
2018-03-15T03:20:55.784Z,16.10
2018-03-15T03:23:25.311Z,14.93
2018-03-15T03:25:55.749Z,17.30
2018-03-15T03:28:25.506Z,16.03
2018-03-15T03:30:55.509Z,15.77
2018-03-15T03:33:24.959Z,15.23
2018-03-15T03:35:55.218Z,18.40
2018-03-15T03:38:25.497Z,18.17
2018-03-15T03:40:55.571Z,20.07
2018-03-15T03:43:26.038Z,17.13
2018-03-15T03:45:55.793Z,18.90
2018-03-15T03:48:25.284Z,16.57
2018-03-15T03:50:55.273Z,19.40
2018-03-15T03:53:24.720Z,20.43
2018-03-15T03:55:55.114Z,18.27
2018-03-15T03:58:24.602Z,23.00
2018-03-15T04:00:54.975Z,18.67
2018-03-15T04:03:26.172Z,18.33
2018-03-15T04:05:55.831Z,17.70
2018-03-15T04:08:26.097Z,15.93
2018-03-15T04:10:56.679Z,13.13
2018-03-15T04:13:26.944Z,15.70
2018-03-15T04:15:56.377Z,15.50
2018-03-15T04:18:25.855Z,17.60
2018-03-15T04:20:55.695Z,14.50
2018-03-15T04:23:25.164Z,17.00
2018-03-15T04:25:55.730Z,14.43
2018-03-15T04:28:26.197Z,17.20
2018-03-15T04:30:55.891Z,14.57
2018-03-15T04:33:25.272Z,15.07
2018-03-15T04:35:55.539Z,17.33
2018-03-15T04:38:24.982Z,15.00
2018-03-15T04:40:56.000Z,14.57
2018-03-15T04:43:25.658Z,14.30
2018-03-15T04:45:55.686Z,15.27
2018-03-15T04:48:25.212Z,17.03
2018-03-15T04:50:55.669Z,17.10
2018-03-15T04:53:25.103Z,16.10
2018-03-15T04:55:55.351Z,17.63
2018-03-15T04:58:25.047Z,17.97
2018-03-15T05:00:56.452Z,17.27
2018-03-15T05:03:25.925Z,18.53
2018-03-15T05:05:56.713Z,16.83
2018-03-15T05:08:26.140Z,17.00
2018-03-15T05:10:55.857Z,16.80
2018-03-15T05:13:25.356Z,16.37
2018-03-15T05:15:55.427Z,17.73
2018-03-15T05:18:25.261Z,14.43
2018-03-15T05:20:55.392Z,16.30
2018-03-15T05:23:25.327Z,16.80
2018-03-15T05:25:55.774Z,12.70
2018-03-15T05:28:26.133Z,16.83
2018-03-15T05:30:56.131Z,15.47
2018-03-15T05:33:26.293Z,15.80
2018-03-15T05:35:55.904Z,16.77
2018-03-15T05:38:26.505Z,17.67
2018-03-15T05:40:56.551Z,16.73
2018-03-15T05:43:26.823Z,17.50
2018-03-15T05:45:57.621Z,19.20
2018-03-15T05:48:27.894Z,15.83
2018-03-15T05:50:58.654Z,16.13
2018-03-15T05:53:29.083Z,19.40
2018-03-15T05:55:59.643Z,12.70
2018-03-15T05:58:30.347Z,14.80
2018-03-15T06:01:00.760Z,15.73
2018-03-15T06:03:31.660Z,17.20
2018-03-15T06:06:02.979Z,13.37
2018-03-15T06:08:33.602Z,15.50
2018-03-15T06:11:04.179Z,17.70
2018-03-15T06:13:34.738Z,15.50
2018-03-15T06:16:06.403Z,15.50
2018-03-15T06:18:36.728Z,16.83
2018-03-15T06:21:07.248Z,16.87
2018-03-15T06:23:38.594Z,17.10
2018-03-15T06:26:09.545Z,17.47
2018-03-15T06:28:40.621Z,18.17
2018-03-15T06:31:10.949Z,20.70
2018-03-15T06:33:41.594Z,18.77
2018-03-15T06:36:12.643Z,26.70
2018-03-15T06:41:28.309Z,17.77
2018-03-15T06:44:00.192Z,16.33
2018-03-15T06:49:17.314Z,17.67
2018-03-15T06:51:48.546Z,19.17
2018-03-15T06:54:19.337Z,20.07
2018-03-15T06:56:51.412Z,21.13
2018-03-15T06:59:21.840Z,20.30
2018-03-15T07:01:55.072Z,20.10
2018-03-15T07:04:32.515Z,18.60
2018-03-15T07:07:04.979Z,19.47
2018-03-15T07:09:35.973Z,16.87
2018-03-15T07:12:07.104Z,19.90
2018-03-15T07:14:38.317Z,19.20
2018-03-15T07:17:08.869Z,17.77
2018-03-15T07:19:39.324Z,20.40
2018-03-15T07:22:11.524Z,18.53
2018-03-15T07:24:43.386Z,17.20
2018-03-15T07:27:14.667Z,18.00
2018-03-15T07:29:45.596Z,17.37
2018-03-15T07:32:15.963Z,20.13
2018-03-15T07:34:47.427Z,16.63
2018-03-15T07:37:17.523Z,18.90
2018-03-15T07:39:48.305Z,17.03
2018-03-15T07:42:20.620Z,16.87
2018-03-15T07:44:52.922Z,15.90
2018-03-15T07:47:23.359Z,15.33
2018-03-15T07:49:56.067Z,17.13
2018-03-15T07:52:28.333Z,15.73
2018-03-15T07:55:02.978Z,16.10
2018-03-15T07:57:33.553Z,18.10
2018-03-15T08:00:05.228Z,17.97
2018-03-15T08:02:35.964Z,17.57
2018-03-15T08:05:08.376Z,16.83
2018-03-15T08:07:39.378Z,18.53
2018-03-15T08:10:12.409Z,16.60
2018-03-15T08:12:42.857Z,16.93
2018-03-15T08:15:13.699Z,18.40
2018-03-15T08:17:45.601Z,14.73
2018-03-15T08:20:16.081Z,15.27
2018-03-15T08:22:46.682Z,14.67
2018-03-15T08:25:17.356Z,16.30
2018-03-15T08:27:48.260Z,14.90
2018-03-15T08:30:26.022Z,15.63
2018-03-15T08:32:59.088Z,14.77
2018-03-15T08:35:30.989Z,16.20
2018-03-15T08:38:02.870Z,15.40
2018-03-15T08:40:43.941Z,16.67
2018-03-15T08:43:15.361Z,14.80
2018-03-15T08:45:47.611Z,14.20
2018-03-15T08:48:19.599Z,12.53
2018-03-15T08:50:54.034Z,15.53
2018-03-15T08:53:25.340Z,15.47
2018-03-15T08:55:57.219Z,14.33
2018-03-15T08:58:31.557Z,14.83
2018-03-15T09:01:04.203Z,14.40
2018-03-15T09:03:36.892Z,14.30
2018-03-15T09:06:07.470Z,12.67
2018-03-15T09:08:39.134Z,13.57
2018-03-15T09:11:09.151Z,11.53
2018-03-15T09:13:39.402Z,15.97
2018-03-15T09:16:15.168Z,13.53
2018-03-15T09:18:49.591Z,12.90
2018-03-15T09:21:19.711Z,10.43
2018-03-15T09:23:49.744Z,11.80
2018-03-15T09:26:20.610Z,10.37
2018-03-15T09:28:51.555Z,12.17
2018-03-15T09:31:21.734Z,11.60
2018-03-15T09:33:53.116Z,12.47
2018-03-15T09:36:23.322Z,13.60
2018-03-15T09:38:54.363Z,11.63
2018-03-15T09:41:24.412Z,9.20
2018-03-15T09:43:55.346Z,11.67
2018-03-15T09:46:25.558Z,12.30
2018-03-15T09:48:56.063Z,8.93
2018-03-15T09:51:26.201Z,11.43
2018-03-15T09:53:57.026Z,10.97
2018-03-15T09:56:27.028Z,10.50
2018-03-15T09:58:58.250Z,11.30
2018-03-15T10:01:28.981Z,11.77
2018-03-15T10:03:59.720Z,10.60
2018-03-15T10:06:31.772Z,11.03
2018-03-15T10:09:02.929Z,10.70
2018-03-15T10:11:35.281Z,11.40
2018-03-15T10:14:12.237Z,11.73
2018-03-15T10:19:44.360Z,13.20
2018-03-15T10:22:14.402Z,12.50
2018-03-15T10:24:45.142Z,11.90
2018-03-15T10:27:19.252Z,13.43
2018-03-15T10:29:49.681Z,15.80
2018-03-15T10:32:20.033Z,11.00
2018-03-15T10:34:54.473Z,12.20
2018-03-15T10:37:24.664Z,14.00
2018-03-15T10:39:57.136Z,11.33
2018-03-15T10:42:29.190Z,11.90
2018-03-15T10:45:05.065Z,10.90
2018-03-15T10:47:35.559Z,11.77
2018-03-15T10:50:06.337Z,12.37
2018-03-15T10:52:37.535Z,11.93
2018-03-15T10:55:08.771Z,11.00
2018-03-15T10:57:39.865Z,10.67
2018-03-15T11:00:10.071Z,11.17
2018-03-15T11:02:45.046Z,13.47
2018-03-15T11:05:19.849Z,10.13
2018-03-15T11:07:54.121Z,10.90
2018-03-15T11:10:29.382Z,10.93
2018-03-15T11:12:59.617Z,10.70
2018-03-15T11:15:29.906Z,10.93
2018-03-15T11:18:01.074Z,11.20
2018-03-15T11:20:31.341Z,13.43
2018-03-15T11:23:01.740Z,11.17
2018-03-15T11:25:32.089Z,10.70
2018-03-15T11:28:03.850Z,9.40
2018-03-15T11:30:33.942Z,9.60
2018-03-15T11:33:04.240Z,10.87
2018-03-15T11:35:38.945Z,10.27
2018-03-15T11:38:09.270Z,9.10
2018-03-15T11:40:39.856Z,8.70
2018-03-15T11:43:13.163Z,9.10
2018-03-15T11:45:46.986Z,9.90
2018-03-15T11:48:17.139Z,13.40
2018-03-15T11:50:50.357Z,9.50
2018-03-15T11:53:20.996Z,8.30
2018-03-15T11:55:52.150Z,10.60
2018-03-15T11:58:22.527Z,9.47
2018-03-15T12:00:53.714Z,7.93
2018-03-15T12:03:25.815Z,9.40
2018-03-15T12:05:56.117Z,9.47
2018-03-15T12:08:26.559Z,14.40
2018-03-15T12:10:57.654Z,8.43
2018-03-15T12:13:31.273Z,9.47
2018-03-15T12:16:01.998Z,10.67
2018-03-15T12:18:32.848Z,10.10
2018-03-15T12:21:03.229Z,11.53
2018-03-15T12:23:35.878Z,10.50
2018-03-15T12:26:06.690Z,11.50
2018-03-15T12:28:37.809Z,10.20
2018-03-15T12:31:08.387Z,10.60
2018-03-15T12:33:45.634Z,9.30
2018-03-15T12:36:17.208Z,10.90
2018-03-15T12:38:47.662Z,13.50
2018-03-15T12:41:17.619Z,11.37
2018-03-15T12:43:48.503Z,10.80
2018-03-15T12:46:18.803Z,8.47
2018-03-15T12:48:50.034Z,8.37
2018-03-15T12:51:20.130Z,8.37
2018-03-15T12:53:50.134Z,8.33
2018-03-15T12:56:20.195Z,6.67
2018-03-15T12:58:59.945Z,9.10
2018-03-15T13:01:38.155Z,9.13
2018-03-15T13:04:08.687Z,8.33
2018-03-15T13:06:39.056Z,7.53
2018-03-15T13:09:09.887Z,9.47
2018-03-15T13:11:43.892Z,9.93
2018-03-15T13:14:13.811Z,8.87
2018-03-15T13:16:43.536Z,11.50
2018-03-15T13:19:13.319Z,10.37
2018-03-15T13:21:46.741Z,7.90
2018-03-15T13:24:16.882Z,8.60
2018-03-15T13:26:47.316Z,7.43
2018-03-15T13:29:16.997Z,8.03
2018-03-15T13:31:46.852Z,8.73
2018-03-15T13:34:18.680Z,8.93
2018-03-15T13:37:17.833Z,8.10
2018-03-15T13:39:55.415Z,8.97
2018-03-15T13:42:25.803Z,11.33
2018-03-15T13:48:16.361Z,10.00
2018-03-15T13:50:50.286Z,14.70
2018-03-15T13:53:20.673Z,8.73
2018-03-15T13:55:54.546Z,7.70
2018-03-15T13:58:27.943Z,7.27
2018-03-15T14:00:58.035Z,8.43
2018-03-15T14:03:27.418Z,7.97
2018-03-15T14:05:57.583Z,6.73
2018-03-15T14:08:28.336Z,5.63
2018-03-15T14:10:58.614Z,6.50
2018-03-15T14:13:29.427Z,7.37
2018-03-15T14:15:59.463Z,9.00
2018-03-15T14:18:35.123Z,10.87
2018-03-15T14:21:04.913Z,10.87
2018-03-15T14:23:36.808Z,11.50
2018-03-15T14:26:08.014Z,7.60
2018-03-15T14:28:40.413Z,5.03
2018-03-15T14:31:17.883Z,5.40
2018-03-15T14:33:49.339Z,7.00
2018-03-15T14:36:24.048Z,6.67
2018-03-15T14:38:58.797Z,5.80
2018-03-15T14:41:29.236Z,6.40
2018-03-15T14:43:58.962Z,6.03
2018-03-15T14:46:28.516Z,4.60
2018-03-15T14:48:58.039Z,5.80
2018-03-15T14:51:27.484Z,7.70
2018-03-15T14:53:57.917Z,8.33
2018-03-15T14:56:30.773Z,7.50
2018-03-15T14:59:00.878Z,7.87
2018-03-15T15:01:31.112Z,5.10
2018-03-15T15:04:01.369Z,5.87
2018-03-15T15:06:30.709Z,5.97
2018-03-15T15:09:00.613Z,6.07
2018-03-15T15:11:29.864Z,7.50
2018-03-15T15:13:59.324Z,7.97
2018-03-15T15:16:30.014Z,5.70
2018-03-15T15:19:02.624Z,6.20
2018-03-15T15:21:41.988Z,6.43
2018-03-15T15:24:11.713Z,6.13
2018-03-15T15:26:42.112Z,8.80
2018-03-15T15:29:12.857Z,6.70
2018-03-15T15:31:45.594Z,5.87
2018-03-15T15:34:15.561Z,6.43
2018-03-15T15:36:44.987Z,5.37
2018-03-15T15:39:15.615Z,6.33
2018-03-15T15:41:55.772Z,7.30
2018-03-15T15:44:28.864Z,6.30
2018-03-15T15:46:58.432Z,7.93
2018-03-15T15:49:28.480Z,9.60
2018-03-15T15:51:58.527Z,7.27
2018-03-15T15:54:30.000Z,6.53
2018-03-15T15:56:59.934Z,6.63
2018-03-15T15:59:29.298Z,7.87
2018-03-15T16:01:58.596Z,9.23
2018-03-15T16:04:28.060Z,7.10
2018-03-15T16:06:57.647Z,6.83
2018-03-15T16:09:39.575Z,9.00
2018-03-15T16:12:18.680Z,8.70
2018-03-15T16:14:48.655Z,11.93
2018-03-15T16:17:19.184Z,7.20
2018-03-15T16:19:49.486Z,8.60
2018-03-15T16:22:19.404Z,15.67
2018-03-15T16:24:49.204Z,33.33
2018-03-15T16:27:19.022Z,7.27
2018-03-15T16:29:52.703Z,10.57
2018-03-15T16:32:22.982Z,7.33
2018-03-15T16:34:54.275Z,8.33
2018-03-15T16:37:24.002Z,8.27
2018-03-15T16:39:53.678Z,8.13
2018-03-15T16:42:29.986Z,7.73
2018-03-15T16:45:06.941Z,7.00
2018-03-15T16:47:36.751Z,9.07
2018-03-15T16:50:06.672Z,6.83
2018-03-15T16:52:36.190Z,12.17
2018-03-15T16:55:05.896Z,9.60
2018-03-15T16:57:42.430Z,8.20
2018-03-15T17:00:26.304Z,11.00
2018-03-15T17:02:57.752Z,10.33
2018-03-15T17:05:27.232Z,11.33
2018-03-15T17:07:57.509Z,13.13
2018-03-15T17:10:28.323Z,8.50
2018-03-15T17:12:57.990Z,8.73
2018-03-15T17:15:27.616Z,8.97
2018-03-15T17:17:58.010Z,8.73
2018-03-15T17:20:28.344Z,8.67
2018-03-15T17:22:57.576Z,8.60
2018-03-15T17:25:27.193Z,9.40
2018-03-15T17:28:00.449Z,8.40
2018-03-15T17:30:30.335Z,12.67
2018-03-15T17:33:04.361Z,8.90
2018-03-15T17:35:34.333Z,9.63
2018-03-15T17:38:04.565Z,14.30
2018-03-15T17:40:34.364Z,9.90
2018-03-15T17:43:04.216Z,11.57
2018-03-15T17:45:33.840Z,9.63
2018-03-15T17:48:05.466Z,9.03
2018-03-15T17:50:42.709Z,9.80
2018-03-15T17:56:32.909Z,7.40
2018-03-15T17:59:10.414Z,6.30
2018-03-15T18:01:54.732Z,8.20
2018-03-15T18:04:24.711Z,9.93
2018-03-15T18:06:55.708Z,11.20
2018-03-15T18:09:26.357Z,12.70
2018-03-15T18:11:59.020Z,12.07
2018-03-15T18:14:28.370Z,13.83
2018-03-15T18:16:58.213Z,13.37
2018-03-15T18:19:29.462Z,9.97
2018-03-15T18:22:05.571Z,10.13
2018-03-15T18:24:35.256Z,10.60
2018-03-15T18:27:05.277Z,11.43
2018-03-15T18:29:34.972Z,10.93
2018-03-15T18:32:04.579Z,16.50
2018-03-15T18:34:33.926Z,13.90
2018-03-15T18:37:04.200Z,17.63
2018-03-15T18:39:35.034Z,10.80
2018-03-15T18:42:04.645Z,14.13
2018-03-15T18:44:34.696Z,12.03
2018-03-15T18:47:04.329Z,10.57
2018-03-15T18:49:33.887Z,14.77
2018-03-15T18:52:03.965Z,15.77
2018-03-15T18:54:35.041Z,13.90
2018-03-15T18:57:06.369Z,18.70
2018-03-15T18:59:36.976Z,15.40
2018-03-15T19:02:06.263Z,14.60
2018-03-15T19:04:36.111Z,16.33
2018-03-15T19:07:05.482Z,17.33
2018-03-15T19:09:35.905Z,12.83
2018-03-15T19:12:07.032Z,12.70
2018-03-15T19:14:38.126Z,15.70
2018-03-15T19:17:10.006Z,13.13
2018-03-15T19:19:43.609Z,15.67
2018-03-15T19:22:26.650Z,18.07
2018-03-15T19:25:03.718Z,15.47
2018-03-15T19:27:39.726Z,15.60
2018-03-15T19:30:18.016Z,16.00
2018-03-15T19:32:59.968Z,13.10
2018-03-15T19:35:43.149Z,21.00
2018-03-15T19:38:25.494Z,16.30
2018-03-15T19:41:07.776Z,15.43
2018-03-15T19:43:49.530Z,15.13
2018-03-15T19:46:40.319Z,16.70
2018-03-15T19:49:22.519Z,17.93
2018-03-15T19:52:11.745Z,13.50
2018-03-15T19:54:51.096Z,15.40
2018-03-15T19:57:29.158Z,15.37
2018-03-15T20:00:14.032Z,16.90
2018-03-15T20:02:59.406Z,16.20
2018-03-15T20:05:55.913Z,17.50
2018-03-15T20:08:40.403Z,16.20
2018-03-15T20:11:27.033Z,15.07
2018-03-15T20:14:13.411Z,14.23
2018-03-15T20:16:59.739Z,14.90
2018-03-15T20:19:57.846Z,13.90
2018-03-15T20:22:43.624Z,17.10
2018-03-15T20:25:27.440Z,16.10
2018-03-15T20:28:12.922Z,18.03
2018-03-15T20:31:00.241Z,19.33
2018-03-15T20:33:47.334Z,17.13
2018-03-15T20:36:26.358Z,16.23
2018-03-15T20:39:10.014Z,16.30
2018-03-15T20:41:46.835Z,16.57
2018-03-15T20:44:18.849Z,16.77
2018-03-15T20:46:56.370Z,15.97
2018-03-15T20:49:30.536Z,15.00
2018-03-15T20:52:01.864Z,15.63
2018-03-15T20:54:32.333Z,17.10
2018-03-15T20:57:02.628Z,15.73
2018-03-15T20:59:32.825Z,14.50
2018-03-15T21:02:02.799Z,15.43
2018-03-15T21:04:33.343Z,18.03
2018-03-15T21:07:02.789Z,18.40
2018-03-15T21:09:34.697Z,16.40
2018-03-15T21:12:05.916Z,14.70
2018-03-15T21:14:44.600Z,18.50
2018-03-15T21:17:25.193Z,16.07
2018-03-15T21:19:58.026Z,15.40
2018-03-15T21:22:28.187Z,13.97
2018-03-15T21:25:02.749Z,17.40
2018-03-15T21:27:37.048Z,15.50
2018-03-15T21:30:09.257Z,16.57
2018-03-15T21:32:39.141Z,15.57
2018-03-15T21:35:10.208Z,15.97
2018-03-15T21:37:40.327Z,17.67
2018-03-15T21:40:26.923Z,18.93
2018-03-15T21:43:06.325Z,15.00
2018-03-15T21:45:37.236Z,17.37
2018-03-15T21:48:09.263Z,19.90
2018-03-15T21:50:44.824Z,16.13
2018-03-15T21:53:18.964Z,15.80
2018-03-15T21:55:58.095Z,16.67
2018-03-15T21:58:35.958Z,18.57
2018-03-15T22:01:21.055Z,17.53
2018-03-15T22:06:54.271Z,24.90
2018-03-15T22:12:12.836Z,19.87
2018-03-15T22:14:48.304Z,19.73
2018-03-15T22:17:20.351Z,30.40
2018-03-15T22:20:01.145Z,16.80
2018-03-15T22:22:32.750Z,19.13
2018-03-15T22:27:48.244Z,16.43
2018-03-15T22:30:18.868Z,15.57
2018-03-15T22:32:49.965Z,14.13
2018-03-15T22:35:19.825Z,17.90
2018-03-15T22:37:56.803Z,16.07
2018-03-15T22:40:26.354Z,15.90
2018-03-15T22:42:56.514Z,17.00
2018-03-15T22:45:25.998Z,16.80
2018-03-15T22:47:56.938Z,25.77
2018-03-15T22:50:30.064Z,16.73
2018-03-15T22:53:02.316Z,16.30
2018-03-15T22:55:38.510Z,18.00
2018-03-15T22:58:09.540Z,21.77
2018-03-15T23:00:39.037Z,19.37
2018-03-15T23:03:09.879Z,17.70
2018-03-15T23:05:40.197Z,16.23
2018-03-15T23:08:10.139Z,19.00
2018-03-15T23:10:41.173Z,18.50
2018-03-15T23:13:10.870Z,27.87
2018-03-15T23:15:46.029Z,18.90
2018-03-15T23:18:20.229Z,17.10
2018-03-15T23:20:56.138Z,20.10
2018-03-15T23:23:27.284Z,19.10
2018-03-15T23:25:58.498Z,20.17
2018-03-15T23:28:28.661Z,20.63
2018-03-15T23:30:58.901Z,18.33
2018-03-15T23:33:28.209Z,25.77
2018-03-15T23:35:57.819Z,20.67
2018-03-15T23:38:27.029Z,17.87
2018-03-15T23:40:57.988Z,23.03
2018-03-15T23:43:29.413Z,23.57
2018-03-15T23:46:00.499Z,24.73
2018-03-15T23:48:30.761Z,19.13
2018-03-15T23:51:00.378Z,15.83
2018-03-15T23:53:35.671Z,16.40
2018-03-15T23:56:13.880Z,17.03
2018-03-15T23:58:43.759Z,17.03
